CLF2 HESH-LICC
Flight info
| Callsign | CLF2 |
|---|---|
| Flight time | N/A |
| Altitude | 40000 |
| Route | SHM L677 MENLI/N0428F430 L677 CVO L617 NABSI M872 METRU UL81 LORNO DCT DODEL/N0405F190 Q72 PIMOR |
| Aircraft | C25C/M-SDE2E3FGHRWXY/LB1 |
Departure
| Time | 2026-04-29 13:35 |
|---|---|
| Airport | Sharm El Sheikh International Airport (HESH) |
Arrival
| Time | N/A |
|---|---|
| Airport | Catania-Fontanarossa Airport (LICC) |
| Time | Latitude | Longitude | Altitude | Speed | Heading |
|---|---|---|---|---|---|
| 2026-04-29 12:23 | 27.98208 | 34.39043 | 166 ft | 0 kts | 311° |
| 2026-04-29 13:29 | 27.98200 | 34.39027 | 193 ft | 3 kts | 172° |
| 2026-04-29 13:29 | 27.98165 | 34.39073 | 166 ft | 13 kts | 133° |
| 2026-04-29 13:29 | 27.98077 | 34.39108 | 166 ft | 18 kts | 210° |
| 2026-04-29 13:30 | 27.97980 | 34.39007 | 166 ft | 19 kts | 223° |
| 2026-04-29 13:30 | 27.97883 | 34.38972 | 166 ft | 14 kts | 138° |
| 2026-04-29 13:30 | 27.97802 | 34.38940 | 166 ft | 14 kts | 223° |
| 2026-04-29 13:30 | 27.97722 | 34.38857 | 166 ft | 17 kts | 222° |
| 2026-04-29 13:31 | 27.97628 | 34.38760 | 166 ft | 19 kts | 222° |
| 2026-04-29 13:31 | 27.97523 | 34.38649 | 166 ft | 22 kts | 222° |
| 2026-04-29 13:31 | 27.97406 | 34.38529 | 166 ft | 24 kts | 222° |
| 2026-04-29 13:31 | 27.97276 | 34.38396 | 166 ft | 26 kts | 223° |
| 2026-04-29 13:32 | 27.97139 | 34.38252 | 166 ft | 28 kts | 223° |
| 2026-04-29 13:32 | 27.97023 | 34.38132 | 167 ft | 16 kts | 213° |
| 2026-04-29 13:32 | 27.96932 | 34.38186 | 167 ft | 17 kts | 132° |
| 2026-04-29 13:32 | 27.96844 | 34.38294 | 168 ft | 19 kts | 133° |
| 2026-04-29 13:33 | 27.96748 | 34.38412 | 168 ft | 21 kts | 131° |
| 2026-04-29 13:33 | 27.96666 | 34.38512 | 167 ft | 14 kts | 132° |
| 2026-04-29 13:33 | 27.96660 | 34.38520 | 167 ft | 0 kts | 132° |
| 2026-04-29 13:34 | 27.96654 | 34.38527 | 167 ft | 5 kts | 131° |
| 2026-04-29 13:34 | 27.96608 | 34.38594 | 167 ft | 15 kts | 101° |
| 2026-04-29 13:34 | 27.96626 | 34.38647 | 167 ft | 0 kts | 42° |
| 2026-04-29 13:34 | 27.96800 | 34.38827 | 169 ft | 80 kts | 43° |
| 2026-04-29 13:35 | 27.97418 | 34.39450 | 317 ft | 144 kts | 42° |
| 2026-04-29 13:35 | 27.98240 | 34.40330 | 744 ft | 180 kts | 45° |
| 2026-04-29 13:35 | 27.99372 | 34.40994 | 1415 ft | 194 kts | 13° |
| 2026-04-29 13:35 | 28.00726 | 34.41538 | 1898 ft | 219 kts | 20° |
| 2026-04-29 13:36 | 28.02169 | 34.42311 | 2270 ft | 247 kts | 24° |
| 2026-04-29 13:36 | 28.03748 | 34.43206 | 3280 ft | 253 kts | 25° |
| 2026-04-29 13:36 | 28.05319 | 34.44110 | 4530 ft | 254 kts | 25° |
| 2026-04-29 13:36 | 28.06923 | 34.44991 | 5630 ft | 257 kts | 25° |
| 2026-04-29 13:37 | 28.08537 | 34.45886 | 6683 ft | 260 kts | 24° |
| 2026-04-29 13:37 | 28.10172 | 34.46801 | 7673 ft | 264 kts | 25° |
| 2026-04-29 13:37 | 28.11833 | 34.47726 | 8683 ft | 267 kts | 24° |
| 2026-04-29 13:37 | 28.13600 | 34.48357 | 9652 ft | 269 kts | 1° |
| 2026-04-29 13:38 | 28.15483 | 34.48363 | 10564 ft | 273 kts | 0° |
| 2026-04-29 13:38 | 28.17393 | 34.48435 | 11448 ft | 277 kts | 359° |
| 2026-04-29 13:38 | 28.19346 | 34.48454 | 11894 ft | 297 kts | 359° |
| 2026-04-29 13:38 | 28.21480 | 34.48088 | 11897 ft | 327 kts | 336° |
| 2026-04-29 13:39 | 28.23434 | 34.46597 | 11904 ft | 353 kts | 315° |
| 2026-04-29 13:39 | 28.24725 | 34.44352 | 11910 ft | 327 kts | 297° |
| 2026-04-29 13:39 | 28.25666 | 34.42053 | 11909 ft | 319 kts | 294° |
| 2026-04-29 13:39 | 28.26556 | 34.39751 | 11912 ft | 317 kts | 296° |
| 2026-04-29 13:40 | 28.27514 | 34.37505 | 11912 ft | 315 kts | 297° |
| 2026-04-29 13:40 | 28.28485 | 34.35274 | 11914 ft | 315 kts | 296° |
| 2026-04-29 13:40 | 28.29440 | 34.33042 | 11923 ft | 314 kts | 296° |
| 2026-04-29 13:40 | 28.30379 | 34.30810 | 11918 ft | 313 kts | 296° |
| 2026-04-29 13:41 | 28.31320 | 34.28579 | 11915 ft | 312 kts | 296° |
| 2026-04-29 13:41 | 28.32254 | 34.26384 | 11920 ft | 312 kts | 297° |
| 2026-04-29 13:41 | 28.33200 | 34.24162 | 11922 ft | 312 kts | 296° |
| 2026-04-29 13:41 | 28.34134 | 34.21936 | 11925 ft | 311 kts | 296° |
| 2026-04-29 13:42 | 28.34757 | 34.20469 | 11931 ft | 311 kts | 297° |
| 2026-04-29 13:42 | 28.35697 | 34.18258 | 11929 ft | 311 kts | 296° |
| 2026-04-29 13:42 | 28.36940 | 34.15306 | 11932 ft | 311 kts | 297° |
| 2026-04-29 13:42 | 28.37881 | 34.13087 | 11938 ft | 311 kts | 297° |
| 2026-04-29 13:43 | 28.38499 | 34.11622 | 11929 ft | 311 kts | 296° |
| 2026-04-29 13:43 | 28.39432 | 34.09409 | 11934 ft | 310 kts | 296° |
| 2026-04-29 13:43 | 28.40365 | 34.07198 | 11937 ft | 310 kts | 296° |
| 2026-04-29 13:43 | 28.41298 | 34.04982 | 11942 ft | 311 kts | 296° |
| 2026-04-29 13:44 | 28.42239 | 34.02752 | 11945 ft | 311 kts | 297° |
| 2026-04-29 13:44 | 28.43174 | 34.00533 | 11939 ft | 315 kts | 296° |
| 2026-04-29 13:44 | 28.44162 | 33.98197 | 11991 ft | 339 kts | 296° |
| 2026-04-29 13:44 | 28.45124 | 33.95896 | 13464 ft | 317 kts | 296° |
| 2026-04-29 13:45 | 28.46077 | 33.93632 | 14295 ft | 320 kts | 296° |
| 2026-04-29 13:45 | 28.47045 | 33.91332 | 15059 ft | 322 kts | 296° |
| 2026-04-29 13:45 | 28.48015 | 33.89022 | 15867 ft | 322 kts | 296° |
| 2026-04-29 13:45 | 28.48982 | 33.86725 | 16634 ft | 322 kts | 296° |
| 2026-04-29 13:46 | 28.49935 | 33.84450 | 17324 ft | 324 kts | 296° |
| 2026-04-29 13:46 | 28.50904 | 33.82134 | 17994 ft | 325 kts | 296° |
| 2026-04-29 13:46 | 28.51882 | 33.79802 | 18641 ft | 326 kts | 296° |
| 2026-04-29 13:46 | 28.52857 | 33.77479 | 19319 ft | 325 kts | 296° |
| 2026-04-29 13:47 | 28.53828 | 33.75156 | 19995 ft | 324 kts | 296° |
| 2026-04-29 13:47 | 28.54799 | 33.72833 | 20603 ft | 326 kts | 296° |
| 2026-04-29 13:47 | 28.55777 | 33.70499 | 21268 ft | 328 kts | 296° |
| 2026-04-29 13:47 | 28.56755 | 33.68153 | 21999 ft | 328 kts | 295° |
| 2026-04-29 13:48 | 28.57728 | 33.65823 | 22635 ft | 330 kts | 296° |
| 2026-04-29 13:48 | 28.58719 | 33.63451 | 23253 ft | 330 kts | 295° |
| 2026-04-29 13:48 | 28.59706 | 33.61088 | 23840 ft | 332 kts | 295° |
| 2026-04-29 13:48 | 28.60696 | 33.58705 | 24331 ft | 333 kts | 295° |
| 2026-04-29 13:49 | 28.61692 | 33.56320 | 24830 ft | 335 kts | 295° |
| 2026-04-29 13:49 | 28.62708 | 33.53921 | 25318 ft | 337 kts | 297° |
| 2026-04-29 13:49 | 28.64067 | 33.51734 | 25776 ft | 340 kts | 307° |
| 2026-04-29 13:49 | 28.65529 | 33.49662 | 26243 ft | 341 kts | 307° |
| 2026-04-29 13:50 | 28.67021 | 33.47552 | 26702 ft | 342 kts | 307° |
| 2026-04-29 13:50 | 28.68524 | 33.45441 | 27191 ft | 343 kts | 307° |
| 2026-04-29 13:50 | 28.70032 | 33.43315 | 27545 ft | 346 kts | 307° |
| 2026-04-29 13:50 | 28.71545 | 33.41178 | 27945 ft | 347 kts | 307° |
| 2026-04-29 13:51 | 28.73052 | 33.39046 | 28490 ft | 344 kts | 307° |
| 2026-04-29 13:51 | 28.74548 | 33.36932 | 29050 ft | 341 kts | 307° |
| 2026-04-29 13:51 | 28.76037 | 33.34826 | 29636 ft | 338 kts | 307° |
| 2026-04-29 13:51 | 28.77508 | 33.32747 | 30188 ft | 335 kts | 307° |
| 2026-04-29 13:52 | 28.78950 | 33.30700 | 30591 ft | 335 kts | 307° |
| 2026-04-29 13:52 | 28.80415 | 33.28630 | 30957 ft | 336 kts | 307° |
| 2026-04-29 13:52 | 28.81883 | 33.26546 | 31295 ft | 337 kts | 307° |
| 2026-04-29 13:52 | 28.83352 | 33.24461 | 31670 ft | 337 kts | 306° |
| 2026-04-29 13:53 | 28.84827 | 33.22372 | 32055 ft | 338 kts | 306° |
| 2026-04-29 13:53 | 28.86300 | 33.20281 | 32433 ft | 338 kts | 306° |
| 2026-04-29 13:53 | 28.87775 | 33.18184 | 32823 ft | 338 kts | 306° |
| 2026-04-29 13:53 | 28.89251 | 33.16089 | 33197 ft | 339 kts | 306° |
| 2026-04-29 13:54 | 28.90727 | 33.13990 | 33570 ft | 339 kts | 306° |
| 2026-04-29 13:54 | 28.92206 | 33.11886 | 33924 ft | 339 kts | 305° |
| 2026-04-29 13:54 | 28.93668 | 33.09808 | 34234 ft | 340 kts | 305° |
| 2026-04-29 13:54 | 28.95145 | 33.07703 | 34562 ft | 339 kts | 305° |
| 2026-04-29 13:55 | 28.96627 | 33.05593 | 34880 ft | 339 kts | 304° |
| 2026-04-29 13:55 | 28.98103 | 33.03490 | 35200 ft | 339 kts | 304° |
| 2026-04-29 13:55 | 28.99573 | 33.01391 | 35519 ft | 338 kts | 304° |
| 2026-04-29 13:55 | 29.01043 | 32.99296 | 35833 ft | 338 kts | 304° |
| 2026-04-29 13:56 | 29.02511 | 32.97201 | 36137 ft | 337 kts | 304° |
| 2026-04-29 13:56 | 29.03962 | 32.95128 | 36435 ft | 337 kts | 304° |
| 2026-04-29 13:56 | 29.05426 | 32.93038 | 36733 ft | 337 kts | 304° |
| 2026-04-29 13:56 | 29.06907 | 32.90920 | 37032 ft | 336 kts | 304° |
| 2026-04-29 13:57 | 29.08351 | 32.88854 | 37317 ft | 336 kts | 303° |
| 2026-04-29 13:57 | 29.09812 | 32.86766 | 37608 ft | 336 kts | 303° |
| 2026-04-29 13:57 | 29.11271 | 32.84675 | 37895 ft | 336 kts | 303° |
| 2026-04-29 13:57 | 29.12728 | 32.82588 | 38181 ft | 335 kts | 303° |
| 2026-04-29 13:58 | 29.14189 | 32.80496 | 38468 ft | 335 kts | 303° |
| 2026-04-29 13:58 | 29.15640 | 32.78414 | 38721 ft | 335 kts | 303° |
| 2026-04-29 13:58 | 29.17091 | 32.76332 | 38929 ft | 335 kts | 303° |
| 2026-04-29 13:58 | 29.18544 | 32.74248 | 39139 ft | 335 kts | 303° |
| 2026-04-29 13:59 | 29.19977 | 32.72188 | 39343 ft | 335 kts | 303° |
| 2026-04-29 13:59 | 29.21433 | 32.70097 | 39555 ft | 335 kts | 303° |
| 2026-04-29 13:59 | 29.22888 | 32.68007 | 39765 ft | 335 kts | 303° |
| 2026-04-29 13:59 | 29.24343 | 32.65912 | 39878 ft | 338 kts | 303° |
| 2026-04-29 14:00 | 29.27313 | 32.61635 | 39952 ft | 348 kts | 303° |
| 2026-04-29 14:00 | 29.30363 | 32.57223 | 39969 ft | 357 kts | 302° |
| 2026-04-29 14:01 | 29.33449 | 32.52722 | 39971 ft | 365 kts | 303° |
| 2026-04-29 14:01 | 29.36621 | 32.48103 | 39972 ft | 372 kts | 303° |
| 2026-04-29 14:02 | 29.39848 | 32.43394 | 39975 ft | 378 kts | 303° |
| 2026-04-29 14:02 | 29.43118 | 32.38621 | 39976 ft | 382 kts | 303° |
| 2026-04-29 14:03 | 29.46401 | 32.33819 | 39984 ft | 386 kts | 303° |
| 2026-04-29 14:03 | 29.49730 | 32.28948 | 39987 ft | 389 kts | 303° |
| 2026-04-29 14:04 | 29.53068 | 32.24058 | 39984 ft | 380 kts | 303° |
| 2026-04-29 14:04 | 29.54677 | 32.21704 | 39978 ft | 369 kts | 303° |
| 2026-04-29 14:04 | 29.56237 | 32.19416 | 39969 ft | 358 kts | 303° |
| 2026-04-29 14:05 | 29.59195 | 32.15064 | 39971 ft | 338 kts | 302° |
| 2026-04-29 14:05 | 29.62027 | 32.10901 | 39973 ft | 323 kts | 302° |
| 2026-04-29 14:06 | 29.64739 | 32.06909 | 39975 ft | 310 kts | 302° |
| 2026-04-29 14:06 | 29.67351 | 32.03059 | 39973 ft | 300 kts | 302° |
| 2026-04-29 14:07 | 29.68630 | 32.01173 | 39974 ft | 296 kts | 302° |
| 2026-04-29 14:07 | 29.69885 | 31.99321 | 39974 ft | 292 kts | 302° |
| 2026-04-29 14:07 | 29.71124 | 31.97493 | 39976 ft | 288 kts | 302° |
| 2026-04-29 14:07 | 29.72347 | 31.95687 | 39983 ft | 284 kts | 302° |
| 2026-04-29 14:08 | 29.73554 | 31.93903 | 39982 ft | 281 kts | 302° |
| 2026-04-29 14:08 | 29.74749 | 31.92139 | 39984 ft | 278 kts | 302° |
| 2026-04-29 14:08 | 29.75916 | 31.90413 | 39986 ft | 275 kts | 302° |
| 2026-04-29 14:08 | 29.77086 | 31.88683 | 39990 ft | 272 kts | 302° |
| 2026-04-29 14:09 | 29.78244 | 31.86970 | 39988 ft | 270 kts | 302° |
| 2026-04-29 14:09 | 29.79355 | 31.85247 | 39990 ft | 267 kts | 300° |
| 2026-04-29 14:09 | 29.80453 | 31.83530 | 39993 ft | 265 kts | 301° |
| 2026-04-29 14:09 | 29.81548 | 31.81834 | 39994 ft | 262 kts | 300° |
| 2026-04-29 14:10 | 29.82629 | 31.80152 | 39996 ft | 260 kts | 300° |
| 2026-04-29 14:10 | 29.83704 | 31.78476 | 39997 ft | 259 kts | 300° |
| 2026-04-29 14:10 | 29.84770 | 31.76815 | 39998 ft | 257 kts | 300° |
| 2026-04-29 14:10 | 29.85816 | 31.75182 | 40000 ft | 255 kts | 300° |
| 2026-04-29 14:11 | 29.86868 | 31.73542 | 39998 ft | 254 kts | 300° |
| 2026-04-29 14:11 | 29.87918 | 31.71905 | 39998 ft | 253 kts | 300° |
| 2026-04-29 14:11 | 29.88957 | 31.70280 | 39998 ft | 251 kts | 300° |
| 2026-04-29 14:11 | 29.89994 | 31.68662 | 39998 ft | 250 kts | 300° |
| 2026-04-29 14:12 | 29.91026 | 31.67050 | 39997 ft | 249 kts | 300° |
| 2026-04-29 14:12 | 29.92054 | 31.65442 | 39998 ft | 248 kts | 300° |
| 2026-04-29 14:12 | 29.93075 | 31.63873 | 39997 ft | 247 kts | 300° |
| 2026-04-29 14:12 | 29.94103 | 31.62290 | 39997 ft | 246 kts | 301° |
| 2026-04-29 14:13 | 29.95122 | 31.60712 | 40001 ft | 245 kts | 300° |
| 2026-04-29 14:13 | 29.96141 | 31.59137 | 39984 ft | 244 kts | 300° |
| 2026-04-29 14:13 | 29.97161 | 31.57561 | 39985 ft | 244 kts | 301° |
| 2026-04-29 14:13 | 29.98174 | 31.55991 | 39980 ft | 243 kts | 300° |
| 2026-04-29 14:14 | 29.99171 | 31.54451 | 39983 ft | 242 kts | 300° |
| 2026-04-29 14:14 | 30.00176 | 31.52892 | 39983 ft | 242 kts | 300° |
| 2026-04-29 14:14 | 30.01181 | 31.51334 | 39984 ft | 241 kts | 300° |
| 2026-04-29 14:14 | 30.02182 | 31.49784 | 39985 ft | 240 kts | 300° |
| 2026-04-29 14:15 | 30.03182 | 31.48235 | 39985 ft | 240 kts | 300° |
| 2026-04-29 14:15 | 30.04176 | 31.46690 | 39991 ft | 240 kts | 300° |
| 2026-04-29 14:15 | 30.05174 | 31.45143 | 39986 ft | 239 kts | 300° |
| 2026-04-29 14:15 | 30.06168 | 31.43602 | 39984 ft | 239 kts | 300° |
| 2026-04-29 14:16 | 30.07159 | 31.42061 | 39984 ft | 239 kts | 300° |
| 2026-04-29 14:16 | 30.08150 | 31.40522 | 39984 ft | 239 kts | 300° |
| 2026-04-29 14:16 | 30.09169 | 31.39035 | 39984 ft | 241 kts | 304° |
| 2026-04-29 14:16 | 30.10345 | 31.37641 | 39986 ft | 244 kts | 309° |
| 2026-04-29 14:17 | 30.11597 | 31.36317 | 39988 ft | 243 kts | 308° |
| 2026-04-29 14:17 | 30.12839 | 31.34981 | 39985 ft | 243 kts | 308° |
| 2026-04-29 14:17 | 30.14075 | 31.33649 | 39990 ft | 243 kts | 309° |
| 2026-04-29 14:17 | 30.15313 | 31.32319 | 39985 ft | 243 kts | 309° |
| 2026-04-29 14:18 | 30.16550 | 31.30994 | 39985 ft | 242 kts | 308° |
| 2026-04-29 14:18 | 30.17784 | 31.29670 | 39986 ft | 242 kts | 309° |
| 2026-04-29 14:18 | 30.19014 | 31.28347 | 39986 ft | 242 kts | 309° |
| 2026-04-29 14:18 | 30.20233 | 31.27038 | 39984 ft | 241 kts | 308° |
| 2026-04-29 14:19 | 30.21463 | 31.25718 | 39979 ft | 241 kts | 308° |
| 2026-04-29 14:19 | 30.22689 | 31.24397 | 39983 ft | 241 kts | 309° |
| 2026-04-29 14:19 | 30.23915 | 31.23078 | 39982 ft | 240 kts | 308° |
| 2026-04-29 14:19 | 30.25140 | 31.21762 | 39982 ft | 240 kts | 308° |
| 2026-04-29 14:20 | 30.26364 | 31.20444 | 39981 ft | 240 kts | 309° |
| 2026-04-29 14:20 | 30.27585 | 31.19128 | 39982 ft | 240 kts | 308° |
| 2026-04-29 14:20 | 30.28805 | 31.17815 | 39979 ft | 239 kts | 308° |
| 2026-04-29 14:20 | 30.30023 | 31.16503 | 39981 ft | 239 kts | 308° |
| 2026-04-29 14:21 | 30.31241 | 31.15189 | 39980 ft | 239 kts | 308° |
| 2026-04-29 14:21 | 30.32444 | 31.13892 | 39980 ft | 239 kts | 308° |
| 2026-04-29 14:21 | 30.33663 | 31.12579 | 39979 ft | 239 kts | 308° |
| 2026-04-29 14:21 | 30.34879 | 31.11263 | 39981 ft | 239 kts | 308° |
| 2026-04-29 14:22 | 30.36093 | 31.09955 | 39982 ft | 239 kts | 308° |
| 2026-04-29 14:22 | 30.37313 | 31.08638 | 39981 ft | 239 kts | 308° |
| 2026-04-29 14:22 | 30.38526 | 31.07326 | 39984 ft | 239 kts | 308° |
| 2026-04-29 14:22 | 30.39725 | 31.06031 | 39985 ft | 238 kts | 308° |
| 2026-04-29 14:23 | 30.40939 | 31.04720 | 39983 ft | 238 kts | 308° |
| 2026-04-29 14:23 | 30.42150 | 31.03409 | 39990 ft | 238 kts | 308° |
| 2026-04-29 14:23 | 30.43363 | 31.02096 | 39989 ft | 238 kts | 308° |
| 2026-04-29 14:23 | 30.44576 | 31.00784 | 39989 ft | 238 kts | 308° |
| 2026-04-29 14:24 | 30.45787 | 30.99474 | 39992 ft | 238 kts | 308° |
| 2026-04-29 14:24 | 30.46996 | 30.98163 | 39995 ft | 238 kts | 308° |
| 2026-04-29 14:24 | 30.48208 | 30.96851 | 39996 ft | 238 kts | 308° |
| 2026-04-29 14:24 | 30.49422 | 30.95537 | 39995 ft | 238 kts | 308° |
| 2026-04-29 14:25 | 30.50632 | 30.94222 | 39998 ft | 238 kts | 308° |
| 2026-04-29 14:25 | 30.51844 | 30.92910 | 39997 ft | 238 kts | 308° |
| 2026-04-29 14:25 | 30.53053 | 30.91598 | 39998 ft | 238 kts | 308° |
| 2026-04-29 14:25 | 30.54260 | 30.90287 | 40001 ft | 238 kts | 308° |
| 2026-04-29 14:26 | 30.55469 | 30.88976 | 40000 ft | 238 kts | 308° |
| 2026-04-29 14:26 | 30.56661 | 30.87683 | 40001 ft | 238 kts | 308° |
| 2026-04-29 14:26 | 30.57868 | 30.86369 | 40005 ft | 238 kts | 308° |
| 2026-04-29 14:26 | 30.59074 | 30.85058 | 40006 ft | 238 kts | 308° |
| 2026-04-29 14:27 | 30.60282 | 30.83747 | 40005 ft | 238 kts | 308° |
| 2026-04-29 14:27 | 30.61489 | 30.82433 | 40005 ft | 238 kts | 308° |
| 2026-04-29 14:27 | 30.62695 | 30.81120 | 40003 ft | 238 kts | 308° |
| 2026-04-29 14:28 | 30.65109 | 30.78493 | 40005 ft | 238 kts | 308° |
| 2026-04-29 14:28 | 30.66316 | 30.77177 | 40006 ft | 238 kts | 308° |
| 2026-04-29 14:28 | 30.67524 | 30.75863 | 40007 ft | 238 kts | 308° |
| 2026-04-29 14:28 | 30.68729 | 30.74550 | 40010 ft | 238 kts | 308° |
| 2026-04-29 14:29 | 30.69935 | 30.73232 | 40010 ft | 238 kts | 308° |
| 2026-04-29 14:29 | 30.71142 | 30.71918 | 40011 ft | 238 kts | 308° |
| 2026-04-29 14:29 | 30.72349 | 30.70602 | 40010 ft | 238 kts | 308° |
| 2026-04-29 14:29 | 30.73556 | 30.69282 | 40012 ft | 238 kts | 308° |
| 2026-04-29 14:30 | 30.74355 | 30.68412 | 40014 ft | 238 kts | 308° |
| 2026-04-29 14:30 | 30.75966 | 30.66649 | 40017 ft | 246 kts | 308° |
| 2026-04-29 14:30 | 30.77249 | 30.65236 | 40016 ft | 261 kts | 309° |
| 2026-04-29 14:30 | 30.78611 | 30.63747 | 40016 ft | 276 kts | 309° |
| 2026-04-29 14:31 | 30.80044 | 30.62186 | 40017 ft | 289 kts | 309° |
| 2026-04-29 14:31 | 30.81047 | 30.61087 | 40022 ft | 298 kts | 310° |
| 2026-04-29 14:31 | 30.82592 | 30.59399 | 40022 ft | 310 kts | 310° |
| 2026-04-29 14:31 | 30.84171 | 30.57670 | 40021 ft | 321 kts | 310° |
| 2026-04-29 14:32 | 30.85825 | 30.55857 | 40021 ft | 332 kts | 310° |
| 2026-04-29 14:32 | 30.89285 | 30.52068 | 40023 ft | 350 kts | 310° |
| 2026-04-29 14:33 | 30.92911 | 30.48089 | 40026 ft | 364 kts | 311° |
| 2026-04-29 14:33 | 30.96645 | 30.43987 | 40026 ft | 373 kts | 311° |
| 2026-04-29 14:34 | 31.00464 | 30.39788 | 40028 ft | 381 kts | 311° |
| 2026-04-29 14:34 | 31.04320 | 30.35523 | 40032 ft | 386 kts | 309° |
| 2026-04-29 14:35 | 31.07721 | 30.30698 | 40033 ft | 385 kts | 301° |
| 2026-04-29 14:35 | 31.10342 | 30.25241 | 40034 ft | 386 kts | 291° |
| 2026-04-29 14:36 | 31.12151 | 30.19329 | 40033 ft | 387 kts | 286° |
| 2026-04-29 14:36 | 31.13792 | 30.13355 | 40034 ft | 390 kts | 286° |
| 2026-04-29 14:37 | 31.15439 | 30.07290 | 40029 ft | 392 kts | 286° |
| 2026-04-29 14:37 | 31.17092 | 30.01201 | 40030 ft | 394 kts | 286° |
| 2026-04-29 14:38 | 31.19154 | 29.95264 | 40031 ft | 397 kts | 294° |
| 2026-04-29 14:38 | 31.22060 | 29.89788 | 40028 ft | 402 kts | 302° |
| 2026-04-29 14:39 | 31.25367 | 29.84510 | 40029 ft | 402 kts | 302° |
| 2026-04-29 14:39 | 31.28670 | 29.79202 | 40034 ft | 403 kts | 302° |
| 2026-04-29 14:40 | 31.31979 | 29.73898 | 40035 ft | 404 kts | 302° |
| 2026-04-29 14:40 | 31.35267 | 29.68609 | 40041 ft | 404 kts | 302° |
| 2026-04-29 14:41 | 31.38582 | 29.63278 | 40039 ft | 405 kts | 302° |
| 2026-04-29 14:41 | 31.41895 | 29.57937 | 40043 ft | 405 kts | 302° |
| 2026-04-29 14:42 | 31.45184 | 29.52629 | 40044 ft | 405 kts | 302° |
| 2026-04-29 14:42 | 31.48496 | 29.47277 | 40044 ft | 405 kts | 302° |
| 2026-04-29 14:43 | 31.51806 | 29.41921 | 40043 ft | 406 kts | 302° |
| 2026-04-29 14:43 | 31.55072 | 29.36635 | 40045 ft | 386 kts | 302° |
| 2026-04-29 14:44 | 31.58131 | 29.31666 | 40034 ft | 372 kts | 302° |
| 2026-04-29 14:44 | 31.61134 | 29.26775 | 40031 ft | 366 kts | 302° |
| 2026-04-29 14:45 | 31.64088 | 29.21956 | 40028 ft | 361 kts | 302° |
| 2026-04-29 14:45 | 31.67009 | 29.17184 | 40030 ft | 357 kts | 301° |
| 2026-04-29 14:46 | 31.69878 | 29.12491 | 40027 ft | 354 kts | 301° |
| 2026-04-29 14:46 | 31.72745 | 29.07797 | 40029 ft | 352 kts | 301° |
| 2026-04-29 14:47 | 31.75592 | 29.03132 | 40034 ft | 350 kts | 301° |
| 2026-04-29 14:47 | 31.78420 | 28.98491 | 40034 ft | 348 kts | 301° |
| 2026-04-29 14:48 | 31.81221 | 28.93892 | 40036 ft | 347 kts | 301° |
| 2026-04-29 14:48 | 31.84031 | 28.89272 | 40038 ft | 346 kts | 301° |
| 2026-04-29 14:49 | 31.86832 | 28.84659 | 40035 ft | 346 kts | 301° |
| 2026-04-29 14:49 | 31.89608 | 28.80084 | 40035 ft | 345 kts | 301° |
| 2026-04-29 14:50 | 31.92396 | 28.75484 | 40036 ft | 345 kts | 301° |
| 2026-04-29 14:50 | 31.95177 | 28.70887 | 40036 ft | 344 kts | 301° |
| 2026-04-29 14:51 | 31.97960 | 28.66283 | 40039 ft | 344 kts | 301° |